createdAt,value
2023-03-04T00:00:00.043Z,2.33
2023-03-04T00:02:27.117Z,2.47
2023-03-04T00:04:54.174Z,2.60
2023-03-04T00:07:21.256Z,3.20
2023-03-04T00:09:48.402Z,1.92
2023-03-04T00:12:15.456Z,1.98
2023-03-04T00:14:42.522Z,2.15
2023-03-04T00:17:09.738Z,1.70
2023-03-04T00:19:36.870Z,1.30
2023-03-04T00:22:04.442Z,1.70
2023-03-04T00:24:32.512Z,1.00
2023-03-04T00:26:59.624Z,2.55
2023-03-04T00:29:26.811Z,2.80
2023-03-04T00:31:54.023Z,2.80
2023-03-04T00:34:21.504Z,2.15
2023-03-04T00:36:48.730Z,1.60
2023-03-04T00:39:15.937Z,1.20
2023-03-04T00:41:43.086Z,1.75
2023-03-04T00:44:10.183Z,1.08
2023-03-04T00:46:37.274Z,1.10
2023-03-04T00:49:04.416Z,1.40
2023-03-04T00:51:31.497Z,1.07
2023-03-04T00:54:00.781Z,1.10
2023-03-04T00:56:28.282Z,2.47
2023-03-04T00:58:55.966Z,0.90
2023-03-04T01:01:23.428Z,1.00
2023-03-04T01:03:50.541Z,1.75
2023-03-04T01:06:17.864Z,0.88
2023-03-04T01:08:44.969Z,1.08
2023-03-04T01:11:12.080Z,0.80
2023-03-04T01:13:39.665Z,1.15
2023-03-04T01:16:07.655Z,1.50
2023-03-04T01:18:34.774Z,0.70
2023-03-04T01:21:01.945Z,1.00
2023-03-04T01:23:28.996Z,0.80
2023-03-04T01:25:56.129Z,0.77
2023-03-04T01:28:23.414Z,2.45
2023-03-04T01:30:50.525Z,2.65
2023-03-04T01:33:17.660Z,2.13
2023-03-04T01:35:44.821Z,2.13
2023-03-04T01:38:12.826Z,1.13
2023-03-04T01:40:40.202Z,4.05
2023-03-04T01:43:11.361Z,1.48
2023-03-04T01:45:40.225Z,2.80
2023-03-04T01:48:10.089Z,3.60
2023-03-04T01:50:37.182Z,1.08
2023-03-04T01:53:04.398Z,1.25
2023-03-04T01:55:32.174Z,1.02
2023-03-04T01:57:59.382Z,0.85
2023-03-04T02:00:35.028Z,1.35
2023-03-04T02:03:12.408Z,4.07
2023-03-04T02:05:42.899Z,4.22
2023-03-04T02:08:10.865Z,2.35
2023-03-04T02:10:38.950Z,2.60
2023-03-04T02:13:06.709Z,2.08
2023-03-04T02:15:33.950Z,1.63
2023-03-04T02:18:02.128Z,2.45
2023-03-04T02:20:50.509Z,1.95
2023-03-04T02:23:25.301Z,2.17
2023-03-04T02:26:16.944Z,2.15
2023-03-04T02:28:45.028Z,2.13
2023-03-04T02:31:24.710Z,1.63
2023-03-04T02:33:53.880Z,1.90
2023-03-04T02:36:21.931Z,1.80
2023-03-04T02:38:53.853Z,2.38
2023-03-04T02:41:26.329Z,1.02
2023-03-04T02:43:54.980Z,1.00
2023-03-04T02:46:23.149Z,1.55
2023-03-04T02:48:51.596Z,1.23
2023-03-04T02:51:18.982Z,1.35
2023-03-04T02:53:46.452Z,0.90
2023-03-04T02:56:13.521Z,1.65
2023-03-04T02:58:41.124Z,1.65
2023-03-04T03:01:08.736Z,2.50
2023-03-04T03:03:35.967Z,1.95
2023-03-04T03:06:03.161Z,2.97
2023-03-04T03:08:30.272Z,1.35
2023-03-04T03:10:57.345Z,1.75
2023-03-04T03:13:24.743Z,1.90
2023-03-04T03:15:51.948Z,1.00
2023-03-04T03:18:19.122Z,0.93
2023-03-04T03:20:46.488Z,1.13
2023-03-04T03:23:13.583Z,1.05
2023-03-04T03:25:40.683Z,0.88
2023-03-04T03:28:07.807Z,1.25
2023-03-04T03:30:37.951Z,0.80
2023-03-04T03:33:05.038Z,1.60
2023-03-04T03:35:32.207Z,1.30
2023-03-04T03:37:59.321Z,1.63
2023-03-04T03:40:26.433Z,1.10
2023-03-04T03:42:53.534Z,0.80
2023-03-04T03:45:20.589Z,4.05
2023-03-04T03:47:47.681Z,3.38
2023-03-04T03:50:14.778Z,1.30
2023-03-04T03:52:41.854Z,1.90
2023-03-04T03:55:09.386Z,1.88
2023-03-04T03:57:36.455Z,0.90
2023-03-04T04:00:05.107Z,1.27
2023-03-04T04:02:32.304Z,1.00
2023-03-04T04:04:59.437Z,1.10
2023-03-04T04:07:26.535Z,0.85
2023-03-04T04:09:53.713Z,0.98
2023-03-04T04:12:21.134Z,1.27
2023-03-04T04:14:48.188Z,0.90
2023-03-04T04:17:15.517Z,1.45
2023-03-04T04:19:42.769Z,4.43
2023-03-04T04:22:16.115Z,5.15
2023-03-04T04:24:43.188Z,4.45
2023-03-04T04:27:11.067Z,1.58
2023-03-04T04:29:38.163Z,1.50
2023-03-04T04:32:05.715Z,2.13
2023-03-04T04:34:33.012Z,1.05
2023-03-04T04:37:00.470Z,0.95
2023-03-04T04:39:27.537Z,1.00
2023-03-04T04:41:54.609Z,0.90
2023-03-04T04:44:21.650Z,1.40
2023-03-04T04:46:48.719Z,0.80
2023-03-04T04:49:15.790Z,0.90
2023-03-04T04:51:42.872Z,1.60
2023-03-04T04:54:11.519Z,1.40
2023-03-04T04:56:38.692Z,1.75
2023-03-04T04:59:07.616Z,0.90
2023-03-04T05:01:35.576Z,0.82
2023-03-04T05:04:02.833Z,2.60
2023-03-04T05:06:30.020Z,3.07
2023-03-04T05:08:57.259Z,1.60
2023-03-04T05:11:24.337Z,4.10
2023-03-04T05:13:51.609Z,1.65
2023-03-04T05:16:19.315Z,1.70
2023-03-04T05:18:46.906Z,1.98
2023-03-04T05:21:14.121Z,2.17
2023-03-04T05:23:44.455Z,3.67
2023-03-04T05:26:14.763Z,3.05
2023-03-04T05:28:42.250Z,4.10
2023-03-04T05:31:09.439Z,1.05
2023-03-04T05:33:36.941Z,1.02
2023-03-04T05:36:06.129Z,1.60
2023-03-04T05:38:33.358Z,2.17
2023-03-04T05:41:03.577Z,0.70
2023-03-04T05:43:31.349Z,1.20
2023-03-04T05:45:58.419Z,0.90
2023-03-04T05:48:25.561Z,0.75
2023-03-04T05:50:57.588Z,4.18
2023-03-04T05:53:25.126Z,1.65
2023-03-04T05:55:53.040Z,1.55
2023-03-04T05:58:20.462Z,3.38
2023-03-04T06:00:47.767Z,1.30
2023-03-04T06:03:20.413Z,1.08
2023-03-04T06:05:47.936Z,1.27
2023-03-04T06:08:15.057Z,2.00
2023-03-04T06:10:42.586Z,2.30
2023-03-04T06:13:10.465Z,1.08
2023-03-04T06:15:39.423Z,0.93
2023-03-04T06:18:07.718Z,1.60
2023-03-04T06:20:34.867Z,1.52
2023-03-04T06:23:02.005Z,1.55
2023-03-04T06:25:29.069Z,3.40
2023-03-04T06:27:56.224Z,2.67
2023-03-04T06:30:24.082Z,4.43
2023-03-04T06:32:51.204Z,4.30
2023-03-04T06:35:18.337Z,2.83
2023-03-04T06:37:45.440Z,4.18
2023-03-04T06:40:12.748Z,3.50
2023-03-04T06:42:41.007Z,1.87
2023-03-04T06:45:09.412Z,3.78
2023-03-04T06:47:36.601Z,2.05
2023-03-04T06:50:05.514Z,3.83
2023-03-04T06:52:32.725Z,3.30
2023-03-04T06:54:59.845Z,2.87
2023-03-04T06:57:26.907Z,2.43
2023-03-04T06:59:54.037Z,1.27
2023-03-04T07:02:21.145Z,2.22
2023-03-04T07:04:48.289Z,1.05
2023-03-04T07:07:15.402Z,2.15
2023-03-04T07:09:42.470Z,2.92
2023-03-04T07:12:09.530Z,0.82
2023-03-04T07:14:36.595Z,1.45
2023-03-04T07:17:03.962Z,0.90
2023-03-04T07:19:31.011Z,2.30
2023-03-04T07:21:58.112Z,5.37
2023-03-04T07:24:25.185Z,4.57
2023-03-04T07:26:53.648Z,2.83
2023-03-04T07:29:20.720Z,3.55
2023-03-04T07:31:47.838Z,3.78
2023-03-04T07:34:15.216Z,2.92
2023-03-04T07:36:42.737Z,2.40
2023-03-04T07:39:12.896Z,3.33
2023-03-04T07:41:40.635Z,3.58
2023-03-04T07:44:09.017Z,5.72
2023-03-04T07:46:36.201Z,6.88
2023-03-04T07:49:03.634Z,2.73
2023-03-04T07:51:34.887Z,3.15
2023-03-04T07:54:02.373Z,1.85
2023-03-04T07:56:34.209Z,3.00
2023-03-04T07:59:02.277Z,2.67
2023-03-04T08:01:34.885Z,2.43
2023-03-04T08:04:04.131Z,2.55
2023-03-04T08:06:32.165Z,2.45
2023-03-04T08:09:06.333Z,3.20
2023-03-04T08:11:35.616Z,3.47
2023-03-04T08:14:03.642Z,3.13
2023-03-04T08:16:31.259Z,1.75
2023-03-04T08:19:00.833Z,2.67
2023-03-04T08:21:29.107Z,4.18
2023-03-04T08:23:59.475Z,4.75
2023-03-04T08:26:30.161Z,3.13
2023-03-04T08:29:00.242Z,3.03
2023-03-04T08:31:29.833Z,3.70
2023-03-04T08:33:57.011Z,4.60
2023-03-04T08:36:24.266Z,2.97
2023-03-04T08:38:51.351Z,5.80
2023-03-04T08:41:18.467Z,3.67
2023-03-04T08:43:45.515Z,2.77
2023-03-04T08:46:12.661Z,4.87
2023-03-04T08:48:39.840Z,4.93
2023-03-04T08:51:09.341Z,5.25
2023-03-04T08:53:37.391Z,2.95
2023-03-04T08:56:05.747Z,3.03
2023-03-04T08:58:32.953Z,3.75
2023-03-04T09:01:01.288Z,9.63
2023-03-04T09:03:28.923Z,5.15
2023-03-04T09:05:56.294Z,6.35
2023-03-04T09:08:23.366Z,3.90
2023-03-04T09:10:53.957Z,10.35
2023-03-04T09:13:25.133Z,6.13
2023-03-04T09:15:54.059Z,6.30
2023-03-04T09:18:23.431Z,5.63
2023-03-04T09:20:51.060Z,8.20
2023-03-04T09:23:18.882Z,7.25
2023-03-04T09:25:47.402Z,8.70
2023-03-04T09:28:15.130Z,6.93
2023-03-04T09:30:42.361Z,7.75
2023-03-04T09:33:09.826Z,4.93
2023-03-04T09:35:37.114Z,4.27
2023-03-04T09:38:04.240Z,4.78
2023-03-04T09:40:48.135Z,4.82
2023-03-04T09:43:27.436Z,3.55
2023-03-04T09:45:57.715Z,3.63
2023-03-04T09:48:28.797Z,4.70
2023-03-04T09:51:37.802Z,4.47
2023-03-04T09:54:36.736Z,2.78
2023-03-04T09:57:24.381Z,3.33
2023-03-04T10:00:20.263Z,3.53
2023-03-04T10:03:10.293Z,4.20
2023-03-04T10:05:48.487Z,4.40
2023-03-04T10:08:46.477Z,3.08
2023-03-04T10:11:34.549Z,3.13
2023-03-04T10:14:30.068Z,2.22
2023-03-04T10:17:08.714Z,3.92
2023-03-04T10:19:41.603Z,1.70
2023-03-04T10:22:41.633Z,1.52
2023-03-04T10:25:16.094Z,2.75
2023-03-04T10:27:48.741Z,2.75
2023-03-04T10:30:55.019Z,1.77
2023-03-04T10:33:30.416Z,2.03
2023-03-04T10:36:03.792Z,2.95
2023-03-04T10:38:37.293Z,3.08
2023-03-04T10:41:16.750Z,4.53
2023-03-04T10:43:49.680Z,2.20
2023-03-04T10:46:20.720Z,2.50
2023-03-04T10:48:47.762Z,3.63
2023-03-04T10:51:24.448Z,2.83
2023-03-04T10:54:10.680Z,3.28
2023-03-04T10:56:40.973Z,2.70
2023-03-04T10:59:42.599Z,1.63
2023-03-04T11:02:33.882Z,2.33
2023-03-04T11:05:10.022Z,6.33
2023-03-04T11:07:54.655Z,2.70
2023-03-04T11:10:31.310Z,2.40
2023-03-04T11:13:22.878Z,1.75
2023-03-04T11:15:57.985Z,1.70
2023-03-04T11:18:38.891Z,1.30
2023-03-04T11:21:07.643Z,1.50
2023-03-04T11:23:45.567Z,1.20
2023-03-04T11:26:36.558Z,1.50
2023-03-04T11:29:28.293Z,1.08
2023-03-04T11:32:01.333Z,0.88
2023-03-04T11:34:39.043Z,0.87
2023-03-04T11:37:36.570Z,0.93
2023-03-04T11:40:12.356Z,1.50
2023-03-04T11:42:59.657Z,1.70
2023-03-04T11:46:01.164Z,1.57
2023-03-04T11:49:07.139Z,2.92
2023-03-04T11:51:58.676Z,1.90
2023-03-04T11:54:57.272Z,1.75
2023-03-04T11:57:58.793Z,3.05
2023-03-04T12:00:39.999Z,2.17
2023-03-04T12:03:41.294Z,7.00
2023-03-04T12:06:33.134Z,4.03
2023-03-04T12:09:26.247Z,4.47
2023-03-04T12:11:59.496Z,6.57
2023-03-04T12:15:01.601Z,7.90
2023-03-04T12:17:51.450Z,5.90
2023-03-04T12:20:26.019Z,4.50
2023-03-04T12:23:08.995Z,4.32
2023-03-04T12:26:10.382Z,5.00
2023-03-04T12:28:58.966Z,5.20
2023-03-04T12:31:43.523Z,3.20
2023-03-04T12:34:27.692Z,2.60
2023-03-04T12:37:12.924Z,2.38
2023-03-04T12:40:18.672Z,2.13
2023-03-04T12:43:11.109Z,1.60
2023-03-04T12:45:49.323Z,3.47
2023-03-04T12:48:29.682Z,1.63
2023-03-04T12:51:24.239Z,1.23
2023-03-04T12:54:17.486Z,1.45
2023-03-04T12:56:51.886Z,1.83
2023-03-04T12:59:20.970Z,2.93
2023-03-04T13:01:56.925Z,1.70
2023-03-04T13:04:54.748Z,3.93
2023-03-04T13:07:57.204Z,7.88
2023-03-04T13:10:25.450Z,3.38
2023-03-04T13:12:58.151Z,3.50
2023-03-04T13:15:25.215Z,4.57
2023-03-04T13:17:58.161Z,3.78
2023-03-04T13:20:31.121Z,3.10
2023-03-04T13:23:05.234Z,3.17
2023-03-04T13:25:41.923Z,3.42
2023-03-04T13:28:11.689Z,2.50
2023-03-04T13:30:38.763Z,2.63
2023-03-04T13:33:08.854Z,3.92
2023-03-04T13:36:00.619Z,4.88
2023-03-04T13:38:30.806Z,32.78
2023-03-04T13:41:42.442Z,15.60
2023-03-04T13:44:44.580Z,8.88
2023-03-04T13:47:18.606Z,6.15
2023-03-04T13:49:45.802Z,9.63
2023-03-04T13:52:42.321Z,8.18
2023-03-04T13:55:51.190Z,6.63
2023-03-04T13:58:25.956Z,5.75
2023-03-04T14:00:55.164Z,4.47
2023-03-04T14:03:28.168Z,3.03
2023-03-04T14:06:21.060Z,4.28
2023-03-04T14:08:49.235Z,12.13
2023-03-04T14:11:44.305Z,15.60
2023-03-04T14:14:18.405Z,11.77
2023-03-04T14:17:06.517Z,9.93
2023-03-04T14:19:43.607Z,13.38
2023-03-04T14:22:29.952Z,12.50
2023-03-04T14:25:03.306Z,22.73
2023-03-04T14:27:36.304Z,19.80
2023-03-04T14:30:07.086Z,15.38
2023-03-04T14:32:34.402Z,13.20
2023-03-04T14:35:05.451Z,15.52
2023-03-04T14:37:55.942Z,12.95
2023-03-04T14:40:27.698Z,9.90
2023-03-04T14:43:16.145Z,12.52
2023-03-04T14:45:45.077Z,15.80
2023-03-04T14:48:30.614Z,13.10
2023-03-04T14:50:58.714Z,8.80
2023-03-04T14:53:28.752Z,7.05
2023-03-04T14:56:01.739Z,13.73
2023-03-04T14:58:33.893Z,9.55
2023-03-04T15:01:22.920Z,13.10
2023-03-04T15:04:00.527Z,7.20
2023-03-04T15:06:30.874Z,6.22
2023-03-04T15:09:18.357Z,5.57
2023-03-04T15:12:03.795Z,7.47
2023-03-04T15:14:58.695Z,6.22
2023-03-04T15:17:30.429Z,9.57
2023-03-04T15:20:02.364Z,11.97
2023-03-04T15:22:29.930Z,7.18
2023-03-04T15:24:57.016Z,9.48
2023-03-04T15:27:26.137Z,9.57
2023-03-04T15:29:59.034Z,6.38
2023-03-04T15:32:27.089Z,10.88
2023-03-04T15:34:54.347Z,5.68
2023-03-04T15:37:28.181Z,5.50
2023-03-04T15:39:57.603Z,6.22
2023-03-04T15:42:25.548Z,7.93
2023-03-04T15:44:52.642Z,3.53
2023-03-04T15:47:19.788Z,5.70
2023-03-04T15:49:47.476Z,4.00
2023-03-04T15:52:19.154Z,2.93
2023-03-04T15:54:47.826Z,6.38
2023-03-04T15:57:27.451Z,4.88
2023-03-04T15:59:54.572Z,4.55
2023-03-04T16:02:24.492Z,3.97
2023-03-04T16:04:51.647Z,2.45
2023-03-04T16:07:21.393Z,4.00
2023-03-04T16:09:55.365Z,5.70
2023-03-04T16:12:23.964Z,4.45
2023-03-04T16:14:51.191Z,2.75
2023-03-04T16:17:18.670Z,1.75
2023-03-04T16:19:45.976Z,1.65
2023-03-04T16:22:15.430Z,1.27
2023-03-04T16:24:42.935Z,1.00
2023-03-04T16:27:15.443Z,1.60
2023-03-04T16:29:42.558Z,1.23
2023-03-04T16:32:10.392Z,0.98
2023-03-04T16:34:37.628Z,1.10
2023-03-04T16:37:12.236Z,1.10
2023-03-04T16:39:44.098Z,1.33
2023-03-04T16:42:16.736Z,1.50
2023-03-04T16:44:43.834Z,1.70
2023-03-04T16:47:10.968Z,2.20
2023-03-04T16:49:38.530Z,0.77
2023-03-04T16:52:16.562Z,0.80
2023-03-04T16:54:45.480Z,0.52
2023-03-04T16:57:13.989Z,0.70
2023-03-04T16:59:41.126Z,0.85
2023-03-04T17:02:26.933Z,1.20
2023-03-04T17:04:54.110Z,0.60
2023-03-04T17:07:21.144Z,0.70
2023-03-04T17:09:48.237Z,0.40
2023-03-04T17:12:15.388Z,1.77
2023-03-04T17:14:42.469Z,1.57
2023-03-04T17:17:09.623Z,1.75
2023-03-04T17:19:36.760Z,4.07
2023-03-04T17:22:04.034Z,5.05
2023-03-04T17:24:31.288Z,21.92
2023-03-04T17:26:58.470Z,13.63
2023-03-04T17:29:25.766Z,8.02
2023-03-04T17:31:52.916Z,7.50
2023-03-04T17:34:20.060Z,7.90
2023-03-04T17:36:49.956Z,8.20
2023-03-04T17:39:17.069Z,9.27
2023-03-04T17:41:44.160Z,5.80
2023-03-04T17:44:14.582Z,5.07
2023-03-04T17:46:41.766Z,4.53
2023-03-04T17:49:12.071Z,3.53
2023-03-04T17:51:40.118Z,4.03
2023-03-04T17:54:08.500Z,2.50
2023-03-04T17:56:37.498Z,2.80
2023-03-04T17:59:12.364Z,6.93
2023-03-04T18:01:39.701Z,3.40
2023-03-04T18:04:07.504Z,2.03
2023-03-04T18:06:36.636Z,3.05
2023-03-04T18:09:04.598Z,3.33
2023-03-04T18:11:34.500Z,2.60
2023-03-04T18:14:01.996Z,4.85
2023-03-04T18:16:29.206Z,3.28
2023-03-04T18:18:57.988Z,2.53
2023-03-04T18:21:26.591Z,2.67
2023-03-04T18:23:54.407Z,4.20
2023-03-04T18:26:25.183Z,2.72
2023-03-04T18:28:53.514Z,4.93
2023-03-04T18:31:24.041Z,2.55
2023-03-04T18:33:53.762Z,2.58
2023-03-04T18:36:20.913Z,2.27
2023-03-04T18:38:47.979Z,2.93
2023-03-04T18:41:15.763Z,3.20
2023-03-04T18:43:43.289Z,2.17
2023-03-04T18:46:24.723Z,2.85
2023-03-04T18:48:54.239Z,1.52
2023-03-04T18:51:21.561Z,1.52
2023-03-04T18:53:48.688Z,2.08
2023-03-04T18:56:20.824Z,2.20
2023-03-04T18:58:51.345Z,2.33
2023-03-04T19:01:22.213Z,2.10
2023-03-04T19:03:50.596Z,1.63
2023-03-04T19:06:18.211Z,1.05
2023-03-04T19:08:45.364Z,1.30
2023-03-04T19:11:13.026Z,1.70
2023-03-04T19:13:40.091Z,1.10
2023-03-04T19:16:07.497Z,1.13
2023-03-04T19:18:34.619Z,2.72
2023-03-04T19:21:03.050Z,1.50
2023-03-04T19:23:31.992Z,1.40
2023-03-04T19:25:59.104Z,2.35
2023-03-04T19:28:26.246Z,2.70
2023-03-04T19:30:57.885Z,5.43
2023-03-04T19:33:26.611Z,2.10
2023-03-04T19:35:53.751Z,2.22
2023-03-04T19:38:20.866Z,2.40
2023-03-04T19:40:48.068Z,2.95
2023-03-04T19:43:18.654Z,1.83
2023-03-04T19:45:56.012Z,3.38
2023-03-04T19:48:24.012Z,1.30
2023-03-04T19:50:51.082Z,0.80
2023-03-04T19:53:18.727Z,5.35
2023-03-04T19:55:48.894Z,2.03
2023-03-04T19:58:16.572Z,2.50
2023-03-04T20:00:44.146Z,1.35
2023-03-04T20:03:12.094Z,1.15
2023-03-04T20:05:39.830Z,0.73
2023-03-04T20:08:06.982Z,0.60
2023-03-04T20:10:39.071Z,2.28
2023-03-04T20:13:08.122Z,1.27
2023-03-04T20:15:35.627Z,1.23
2023-03-04T20:18:03.255Z,1.00
2023-03-04T20:20:30.542Z,0.55
2023-03-04T20:22:58.094Z,2.00
2023-03-04T20:25:25.533Z,1.10
2023-03-04T20:27:52.591Z,2.05
2023-03-04T20:30:19.699Z,0.45
2023-03-04T20:32:48.116Z,1.50
2023-03-04T20:35:15.246Z,1.58
2023-03-04T20:37:43.042Z,2.70
2023-03-04T20:40:11.582Z,1.92
2023-03-04T20:42:38.795Z,1.50
2023-03-04T20:45:06.644Z,2.95
2023-03-04T20:47:34.034Z,1.33
2023-03-04T20:50:01.203Z,6.20
2023-03-04T20:52:28.275Z,2.22
2023-03-04T20:54:55.303Z,2.35
2023-03-04T20:57:22.413Z,2.75
2023-03-04T20:59:49.530Z,2.90
2023-03-04T21:02:17.162Z,1.35
2023-03-04T21:04:44.610Z,2.10
2023-03-04T21:07:12.210Z,1.87
2023-03-04T21:09:39.287Z,2.00
2023-03-04T21:12:06.563Z,1.60
2023-03-04T21:14:33.686Z,1.25
2023-03-04T21:17:03.059Z,0.60
2023-03-04T21:19:36.334Z,0.80
2023-03-04T21:22:04.224Z,1.05
2023-03-04T21:24:34.034Z,1.40
2023-03-04T21:27:01.881Z,1.63
2023-03-04T21:29:29.025Z,0.57
2023-03-04T21:32:22.351Z,0.63
2023-03-04T21:34:52.203Z,0.75
2023-03-04T21:37:21.242Z,0.98
2023-03-04T21:39:48.366Z,1.10
2023-03-04T21:42:15.551Z,1.30
2023-03-04T21:44:49.545Z,0.55
2023-03-04T21:47:17.816Z,1.13
2023-03-04T21:49:44.951Z,0.40
2023-03-04T21:52:12.969Z,0.57
2023-03-04T21:54:40.142Z,1.70
2023-03-04T21:57:09.492Z,3.00
2023-03-04T21:59:38.155Z,1.13
2023-03-04T22:02:05.517Z,4.28
2023-03-04T22:04:33.060Z,2.13
2023-03-04T22:07:01.833Z,4.22
2023-03-04T22:09:29.005Z,1.52
2023-03-04T22:11:56.164Z,2.47
2023-03-04T22:14:23.222Z,1.75
2023-03-04T22:16:55.823Z,1.67
2023-03-04T22:19:25.112Z,1.17
2023-03-04T22:21:52.928Z,2.80
2023-03-04T22:24:20.537Z,2.40
2023-03-04T22:26:48.138Z,2.13
2023-03-04T22:29:15.454Z,1.38
2023-03-04T22:31:42.739Z,2.13
2023-03-04T22:34:12.211Z,4.88
2023-03-04T22:36:42.701Z,3.08
2023-03-04T22:39:12.698Z,4.28
2023-03-04T22:41:40.075Z,5.03
2023-03-04T22:44:09.094Z,4.75
2023-03-04T22:46:38.590Z,2.10
2023-03-04T22:49:11.006Z,3.08
2023-03-04T22:51:41.276Z,7.75
2023-03-04T22:54:10.506Z,4.13
2023-03-04T22:56:38.954Z,2.35
2023-03-04T22:59:06.187Z,6.68
2023-03-04T23:01:33.637Z,7.20
2023-03-04T23:04:00.768Z,3.45
2023-03-04T23:06:30.179Z,4.63
2023-03-04T23:09:00.340Z,3.15
2023-03-04T23:11:30.189Z,3.13
2023-03-04T23:13:57.850Z,3.28
2023-03-04T23:16:27.636Z,3.30
2023-03-04T23:18:54.736Z,4.00
2023-03-04T23:21:24.408Z,3.10
2023-03-04T23:23:52.456Z,2.92
2023-03-04T23:26:22.876Z,1.50
2023-03-04T23:28:50.821Z,2.17
2023-03-04T23:31:19.068Z,1.63
2023-03-04T23:33:47.708Z,1.63
2023-03-04T23:36:17.803Z,1.67
2023-03-04T23:38:46.912Z,3.20
2023-03-04T23:41:18.957Z,1.13
2023-03-04T23:43:47.246Z,1.58
2023-03-04T23:46:15.400Z,1.60
2023-03-04T23:48:46.133Z,1.50
2023-03-04T23:51:19.577Z,1.05
2023-03-04T23:53:47.088Z,0.68
2023-03-04T23:56:17.111Z,1.63
2023-03-04T23:58:44.704Z,4.55
